Time,TemperatureF,DewpointF,PressureIn,WindDirection,WindDirectionDegrees,WindSpeedMPH,WindSpeedGustMPH,Humidity,HourlyPrecipIn,Conditions,Clouds,dailyrainin,SoftwareType,DateUTC
2013-07-07 00:01:00,71.7,70.5,30.51,NNE,30,0.0,0.0,96,0.00,BKN,,0.00,WeatherDisplay:10.37,2013-07-07 04:01:00,
2013-07-07 00:06:00,71.6,70.4,30.51,NNE,30,0.0,0.0,96,0.00,BKN,,0.00,WeatherDisplay:10.37,2013-07-07 04:06:00,
2013-07-07 00:11:00,71.6,70.4,30.52,NNE,29,0.0,0.0,96,0.00,BKN,,0.00,WeatherDisplay:10.37,2013-07-07 04:11:00,
2013-07-07 00:16:00,71.6,70.4,30.51,NNE,30,0.0,0.0,96,0.00,BKN,,0.00,WeatherDisplay:10.37,2013-07-07 04:16:00,
2013-07-07 00:21:00,71.7,70.5,30.51,NNE,30,0.0,0.0,96,0.00,BKN,,0.00,WeatherDisplay:10.37,2013-07-07 04:21:00,
2013-07-07 00:26:00,71.7,70.5,30.51,NNE,30,0.0,0.0,96,0.00,BKN,,0.00,WeatherDisplay:10.37,2013-07-07 04:26:00,
2013-07-07 00:31:00,71.5,70.3,30.51,NNE,30,0.0,0.0,96,0.00,BKN,,0.00,WeatherDisplay:10.37,2013-07-07 04:31:00,
2013-07-07 00:36:00,71.4,70.2,30.51,NNE,29,0.0,0.0,96,0.00,BKN,,0.00,WeatherDisplay:10.37,2013-07-07 04:36:00,
2013-07-07 00:41:00,71.4,70.2,30.51,NNE,30,0.0,0.0,96,0.00,BKN,,0.00,WeatherDisplay:10.37,2013-07-07 04:41:00,
2013-07-07 00:46:00,71.5,70.3,30.51,NNE,30,0.0,0.0,96,0.00,BKN,,0.00,WeatherDisplay:10.37,2013-07-07 04:46:00,
2013-07-07 00:51:00,71.5,70.3,30.51,NNE,30,0.0,0.0,96,0.00,BKN,,0.00,WeatherDisplay:10.37,2013-07-07 04:51:00,
2013-07-07 00:56:00,71.5,70.3,30.51,NNE,30,0.0,0.0,96,0.00,BKN,,0.00,WeatherDisplay:10.37,2013-07-07 04:56:00,
2013-07-07 01:01:00,71.4,70.2,30.51,NNE,30,0.0,0.0,96,0.00,-RA,,0.00,WeatherDisplay:10.37,2013-07-07 05:01:00,
2013-07-07 01:06:00,71.5,70.0,30.51,NNE,29,0.0,0.0,95,0.00,-RA,,0.00,WeatherDisplay:10.37,2013-07-07 05:06:00,
2013-07-07 01:11:00,71.6,70.1,30.51,NNE,30,0.0,0.0,95,0.00,-RA,,0.00,WeatherDisplay:10.37,2013-07-07 05:11:00,
2013-07-07 01:16:00,71.7,70.2,30.51,NNE,29,0.0,0.0,95,0.00,-RA,,0.00,WeatherDisplay:10.37,2013-07-07 05:16:00,
2013-07-07 01:21:00,71.8,70.0,30.51,NNE,29,0.0,0.0,94,0.00,-RA,,0.00,WeatherDisplay:10.37,2013-07-07 05:21:00,
2013-07-07 01:26:00,71.8,70.0,30.51,NNE,30,0.0,0.0,94,0.00,-RA,,0.00,WeatherDisplay:10.37,2013-07-07 05:26:00,
2013-07-07 01:31:00,72.0,70.2,30.50,NNE,30,0.0,0.0,94,0.00,-RA,,0.00,WeatherDisplay:10.37,2013-07-07 05:31:00,
2013-07-07 01:36:00,72.1,70.3,30.50,NNE,30,0.0,0.0,94,0.00,-RA,,0.00,WeatherDisplay:10.37,2013-07-07 05:36:00,
2013-07-07 01:41:00,72.0,70.2,30.50,NNE,30,0.0,0.0,94,0.00,-RA,,0.00,WeatherDisplay:10.37,2013-07-07 05:41:00,
2013-07-07 01:46:00,72.0,70.5,30.50,NNE,30,0.0,0.0,95,0.00,-RA,,0.00,WeatherDisplay:10.37,2013-07-07 05:46:00,
2013-07-07 01:51:00,71.9,70.4,30.49,NNE,30,0.0,0.0,95,0.00,-RA,,0.00,WeatherDisplay:10.37,2013-07-07 05:51:00,
2013-07-07 01:56:00,71.9,70.7,30.49,NNE,30,1.2,0.0,96,0.00,-RA,,0.00,WeatherDisplay:10.37,2013-07-07 05:56:00,
2013-07-07 02:01:00,71.9,70.7,30.49,NNE,30,0.0,0.0,96,0.00,-RA,,0.00,WeatherDisplay:10.37,2013-07-07 06:01:00,
2013-07-07 02:06:00,71.8,70.6,30.49,NNE,29,0.0,0.0,96,0.00,-RA,,0.00,WeatherDisplay:10.37,2013-07-07 06:06:00,
2013-07-07 02:11:00,71.7,70.5,30.49,NNE,30,0.0,0.0,96,0.00,-RA,,0.00,WeatherDisplay:10.37,2013-07-07 06:11:00,
2013-07-07 02:16:00,71.6,70.4,30.49,NNE,30,0.0,0.0,96,0.00,-RA,,0.00,WeatherDisplay:10.37,2013-07-07 06:16:00,
2013-07-07 02:21:00,71.5,70.3,30.49,NNW,328,1.2,1.2,96,0.00,-RA,,0.00,WeatherDisplay:10.37,2013-07-07 06:21:00,
2013-07-07 02:26:00,71.3,70.1,30.49,NNW,328,0.0,0.0,96,0.00,-RA,,0.00,WeatherDisplay:10.37,2013-07-07 06:26:00,
2013-07-07 02:31:00,71.3,70.4,30.48,NNW,328,1.2,0.0,97,0.00,-RA,,0.00,WeatherDisplay:10.37,2013-07-07 06:31:00,
2013-07-07 02:36:00,71.3,70.4,30.48,NNW,328,1.0,1.0,97,0.00,-RA,,0.00,WeatherDisplay:10.37,2013-07-07 06:36:00,
2013-07-07 02:41:00,71.3,70.4,30.48,NNW,328,0.0,0.0,97,0.00,-RA,,0.00,WeatherDisplay:10.37,2013-07-07 06:41:00,
2013-07-07 02:46:00,71.3,70.4,30.48,NNW,328,0.0,0.0,97,0.00,-RA,,0.00,WeatherDisplay:10.37,2013-07-07 06:46:00,
2013-07-07 02:51:00,71.2,70.3,30.48,NNW,328,0.0,0.0,97,0.00,-RA,,0.00,WeatherDisplay:10.37,2013-07-07 06:51:00,
2013-07-07 02:56:00,71.2,70.3,30.48,NNW,328,0.0,0.0,97,0.00,-RA,,0.00,WeatherDisplay:10.37,2013-07-07 06:56:00,
2013-07-07 03:02:00,71.2,70.3,30.48,NNW,328,1.2,0.0,97,0.00,-RA,,0.00,WeatherDisplay:10.37,2013-07-07 07:02:00,
2013-07-07 03:07:00,71.1,70.2,30.49,NNW,328,0.0,0.0,97,0.00,-RA,,0.00,WeatherDisplay:10.37,2013-07-07 07:07:00,
2013-07-07 03:12:00,71.0,70.1,30.49,NNW,327,1.2,1.2,97,0.00,-RA,,0.00,WeatherDisplay:10.37,2013-07-07 07:12:00,
2013-07-07 03:17:00,71.1,70.2,30.49,NW,312,1.2,1.5,97,0.00,-RA,,0.00,WeatherDisplay:10.37,2013-07-07 07:17:00,
2013-07-07 03:22:00,71.2,70.3,30.50,NW,322,1.2,1.2,97,0.00,-RA,,0.00,WeatherDisplay:10.37,2013-07-07 07:22:00,
2013-07-07 03:27:00,71.3,70.4,30.50,WNW,288,3.5,3.5,97,0.00,-RA,,0.00,WeatherDisplay:10.37,2013-07-07 07:27:00,
2013-07-07 03:32:00,71.5,70.3,30.50,NW,304,2.3,2.3,96,0.01,-RA,,0.01,WeatherDisplay:10.37,2013-07-07 07:32:00,
2013-07-07 03:37:00,71.7,70.5,30.51,NW,310,3.5,3.5,96,0.03,-RA,,0.03,WeatherDisplay:10.37,2013-07-07 07:37:00,
2013-07-07 03:42:00,71.8,70.6,30.51,WNW,288,5.8,5.8,96,0.04,-RA,,0.04,WeatherDisplay:10.37,2013-07-07 07:42:00,
2013-07-07 03:47:00,71.8,70.3,30.51,NW,305,11.5,11.5,95,0.05,-RA,,0.05,WeatherDisplay:10.37,2013-07-07 07:47:00,
2013-07-07 03:52:00,71.7,70.2,30.51,WNW,295,2.3,2.3,95,0.06,-RA,,0.06,WeatherDisplay:10.37,2013-07-07 07:52:00,
2013-07-07 03:57:00,71.4,69.9,30.51,NW,317,1.2,1.2,95,0.07,-RA,,0.07,WeatherDisplay:10.37,2013-07-07 07:57:00,
2013-07-07 04:02:00,71.2,69.7,30.51,WNW,298,2.3,2.3,95,0.07,RA,,0.07,WeatherDisplay:10.37,2013-07-07 08:02:00,
2013-07-07 04:07:00,71.0,69.5,30.50,NW,304,1.2,1.2,95,0.07,OVC,,0.07,WeatherDisplay:10.37,2013-07-07 08:07:00,
2013-07-07 04:12:00,70.8,69.3,30.50,NW,307,1.2,1.2,95,0.07,OVC,,0.07,WeatherDisplay:10.37,2013-07-07 08:12:00,
2013-07-07 04:17:00,70.6,69.1,30.50,NW,307,1.2,0.0,95,0.07,OVC,,0.07,WeatherDisplay:10.37,2013-07-07 08:17:00,
2013-07-07 04:22:00,70.5,69.3,30.50,NW,307,0.0,0.0,96,0.07,OVC,,0.07,WeatherDisplay:10.37,2013-07-07 08:22:00,
2013-07-07 04:27:00,70.3,69.1,30.50,NW,307,1.2,1.2,96,0.07,OVC,,0.07,WeatherDisplay:10.37,2013-07-07 08:27:00,
2013-07-07 04:32:00,70.1,68.9,30.50,NW,307,1.2,1.2,96,0.06,OVC,,0.07,WeatherDisplay:10.37,2013-07-07 08:32:00,
2013-07-07 04:37:00,70.0,68.8,30.49,NW,307,1.2,1.2,96,0.04,OVC,,0.07,WeatherDisplay:10.37,2013-07-07 08:37:00,
2013-07-07 04:42:00,69.9,68.7,30.49,NW,307,0.0,0.0,96,0.03,OVC,,0.07,WeatherDisplay:10.37,2013-07-07 08:42:00,
2013-07-07 04:47:00,69.9,68.7,30.49,NW,307,0.0,0.0,96,0.02,OVC,,0.07,WeatherDisplay:10.37,2013-07-07 08:47:00,
2013-07-07 04:52:00,69.8,68.9,30.49,NW,307,1.2,1.2,97,0.01,OVC,,0.07,WeatherDisplay:10.37,2013-07-07 08:52:00,
2013-07-07 04:57:00,69.8,68.9,30.49,NW,307,0.0,0.0,97,0.00,OVC,,0.07,WeatherDisplay:10.37,2013-07-07 08:57:00,
2013-07-07 05:02:00,69.7,68.8,30.48,NW,307,0.0,0.0,97,0.00,BKN,,0.07,WeatherDisplay:10.37,2013-07-07 09:02:00,
2013-07-07 05:07:00,69.6,68.7,30.48,NW,307,0.0,0.0,97,0.00,BKN,,0.07,WeatherDisplay:10.37,2013-07-07 09:07:00,
2013-07-07 05:12:00,69.5,68.6,30.48,NW,307,0.0,0.0,97,0.00,BKN,,0.07,WeatherDisplay:10.37,2013-07-07 09:12:00,
2013-07-07 05:17:00,69.4,68.5,30.48,NW,307,0.0,0.0,97,0.00,BKN,,0.07,WeatherDisplay:10.37,2013-07-07 09:17:00,
2013-07-07 05:22:00,69.2,68.3,30.48,NW,307,0.0,0.0,97,0.00,BKN,,0.07,WeatherDisplay:10.37,2013-07-07 09:22:00,
2013-07-07 05:27:00,69.0,68.1,30.48,NW,307,0.0,0.0,97,0.00,BKN,,0.07,WeatherDisplay:10.37,2013-07-07 09:27:00,
2013-07-07 05:32:00,68.9,68.0,30.48,NW,307,0.0,0.0,97,0.00,BKN,,0.07,WeatherDisplay:10.37,2013-07-07 09:32:00,
2013-07-07 05:37:00,68.8,67.9,30.48,NW,307,0.0,0.0,97,0.00,BKN,,0.07,WeatherDisplay:10.37,2013-07-07 09:37:00,
2013-07-07 05:42:00,68.7,67.8,30.48,NW,307,0.0,0.0,97,0.00,BKN,,0.07,WeatherDisplay:10.37,2013-07-07 09:42:00,
2013-07-07 05:47:00,68.6,67.7,30.48,NW,307,0.0,0.0,97,0.00,BKN,,0.07,WeatherDisplay:10.37,2013-07-07 09:47:00,
2013-07-07 05:52:00,68.5,67.6,30.48,NW,307,0.0,0.0,97,0.00,BKN,,0.07,WeatherDisplay:10.37,2013-07-07 09:52:00,
2013-07-07 05:57:00,68.6,68.0,30.48,WNW,300,1.2,1.2,98,0.00,BKN,,0.07,WeatherDisplay:10.37,2013-07-07 09:57:00,
2013-07-07 06:02:00,68.7,68.1,30.48,WNW,300,0.0,0.0,98,0.00,BKN,,0.07,WeatherDisplay:10.37,2013-07-07 10:02:00,
2013-07-07 06:07:00,68.8,68.2,30.48,WNW,299,0.0,0.0,98,0.00,BKN,,0.07,WeatherDisplay:10.37,2013-07-07 10:07:00,
2013-07-07 06:12:00,69.0,68.4,30.48,WNW,300,1.2,0.0,98,0.00,BKN,,0.07,WeatherDisplay:10.37,2013-07-07 10:12:00,
2013-07-07 06:17:00,69.1,68.5,30.48,WNW,300,0.0,0.0,98,0.00,BKN,,0.07,WeatherDisplay:10.37,2013-07-07 10:17:00,
2013-07-07 06:22:00,69.3,68.7,30.48,WNW,300,1.2,0.0,98,0.00,BKN,,0.07,WeatherDisplay:10.37,2013-07-07 10:22:00,
2013-07-07 06:27:00,69.5,68.9,30.48,WNW,300,0.0,0.0,98,0.00,BKN,,0.07,WeatherDisplay:10.37,2013-07-07 10:27:00,
2013-07-07 06:32:00,69.8,69.2,30.48,WNW,300,0.0,0.0,98,0.00,BKN,,0.07,WeatherDisplay:10.37,2013-07-07 10:32:00,
2013-07-07 06:37:00,70.1,69.5,30.48,WNW,300,1.0,1.0,98,0.00,BKN,,0.07,WeatherDisplay:10.37,2013-07-07 10:37:00,
2013-07-07 06:42:00,70.2,69.6,30.48,WNW,300,0.0,0.0,98,0.00,BKN,,0.07,WeatherDisplay:10.37,2013-07-07 10:42:00,
2013-07-07 06:47:00,70.3,69.7,30.48,WNW,287,1.2,0.0,98,0.00,BKN,,0.07,WeatherDisplay:10.37,2013-07-07 10:47:00,
2013-07-07 06:52:00,70.6,70.0,30.48,WNW,287,1.2,1.2,98,0.00,BKN,,0.07,WeatherDisplay:10.37,2013-07-07 10:52:00,
2013-07-07 06:57:00,70.7,69.8,30.48,West,268,2.3,2.3,97,0.00,BKN,,0.07,WeatherDisplay:10.37,2013-07-07 10:57:00,
2013-07-07 07:02:00,70.9,70.0,30.49,West,267,2.0,2.0,97,0.00,OVC,,0.07,WeatherDisplay:10.37,2013-07-07 11:02:00,
2013-07-07 07:07:00,71.0,70.1,30.49,West,263,1.2,1.2,97,0.00,OVC,,0.07,WeatherDisplay:10.37,2013-07-07 11:07:00,
2013-07-07 07:12:00,71.2,70.3,30.49,West,264,0.0,0.0,97,0.00,OVC,,0.07,WeatherDisplay:10.37,2013-07-07 11:12:00,
2013-07-07 07:17:00,71.3,70.1,30.49,West,263,1.0,1.0,96,0.00,OVC,,0.07,WeatherDisplay:10.37,2013-07-07 11:17:00,
2013-07-07 07:22:00,71.4,70.2,30.49,WSW,251,1.2,1.2,96,0.00,OVC,,0.07,WeatherDisplay:10.37,2013-07-07 11:22:00,
2013-07-07 07:27:00,71.6,70.4,30.49,West,274,1.2,1.2,96,0.00,OVC,,0.07,WeatherDisplay:10.37,2013-07-07 11:27:00,
2013-07-07 07:32:00,71.7,70.2,30.49,West,259,2.3,2.3,95,0.00,OVC,,0.07,WeatherDisplay:10.37,2013-07-07 11:32:00,
2013-07-07 07:37:00,71.8,70.3,30.49,SSW,194,3.5,3.5,95,0.00,OVC,,0.07,WeatherDisplay:10.37,2013-07-07 11:37:00,
2013-07-07 07:42:00,71.9,70.4,30.49,ESE,120,1.2,1.2,95,0.00,OVC,,0.07,WeatherDisplay:10.37,2013-07-07 11:42:00,
2013-07-07 07:47:00,72.4,70.9,30.49,West,280,0.0,0.0,95,0.00,OVC,,0.07,WeatherDisplay:10.37,2013-07-07 11:47:00,
2013-07-07 07:52:00,73.0,71.2,30.49,West,262,2.3,2.3,94,0.00,OVC,,0.07,WeatherDisplay:10.37,2013-07-07 11:52:00,
2013-07-07 07:57:00,73.7,71.9,30.49,WSW,253,2.0,2.0,94,0.00,OVC,,0.07,WeatherDisplay:10.37,2013-07-07 11:57:00,
2013-07-07 08:02:00,74.1,71.6,30.50,WSW,249,4.0,4.0,92,0.00,BKN,,0.07,WeatherDisplay:10.37,2013-07-07 12:02:00,
2013-07-07 08:07:00,74.1,71.9,30.50,WSW,257,3.0,3.0,93,0.00,BKN,,0.07,WeatherDisplay:10.37,2013-07-07 12:07:00,
2013-07-07 08:12:00,74.3,71.8,30.50,SW,226,3.5,3.5,92,0.00,BKN,,0.07,WeatherDisplay:10.37,2013-07-07 12:12:00,
2013-07-07 08:17:00,75.0,72.2,30.49,SSE,164,3.5,3.5,91,0.00,BKN,,0.07,WeatherDisplay:10.37,2013-07-07 12:17:00,
2013-07-07 08:22:00,75.2,72.4,30.49,WSW,258,1.2,0.0,91,0.00,BKN,,0.07,WeatherDisplay:10.37,2013-07-07 12:22:00,
2013-07-07 08:27:00,75.4,72.6,30.50,SW,217,2.3,2.3,91,0.00,BKN,,0.07,WeatherDisplay:10.37,2013-07-07 12:27:00,
2013-07-07 08:32:00,75.0,72.2,30.50,West,268,1.2,1.2,91,0.00,BKN,,0.07,WeatherDisplay:10.37,2013-07-07 12:32:00,
2013-07-07 08:37:00,75.0,72.2,30.50,SW,236,1.2,1.2,91,0.00,BKN,,0.07,WeatherDisplay:10.37,2013-07-07 12:37:00,
2013-07-07 08:42:00,75.7,72.9,30.49,WSW,248,3.5,3.5,91,0.00,BKN,,0.07,WeatherDisplay:10.37,2013-07-07 12:42:00,
2013-07-07 08:47:00,76.8,73.6,30.49,SW,221,3.5,3.5,90,0.00,BKN,,0.07,WeatherDisplay:10.37,2013-07-07 12:47:00,
2013-07-07 08:52:00,77.3,73.5,30.49,WSW,254,2.3,2.3,88,0.00,BKN,,0.07,WeatherDisplay:10.37,2013-07-07 12:52:00,
2013-07-07 08:57:00,77.1,73.3,30.49,WSW,258,3.5,3.5,88,0.00,BKN,,0.07,WeatherDisplay:10.37,2013-07-07 12:57:00,
2013-07-07 09:02:00,76.9,73.4,30.49,WSW,257,3.0,3.0,89,0.00,BKN,,0.07,WeatherDisplay:10.37,2013-07-07 13:02:00,
2013-07-07 09:07:00,76.7,73.9,30.49,West,275,3.5,3.5,91,0.00,BKN,,0.07,WeatherDisplay:10.37,2013-07-07 13:07:00,
2013-07-07 09:12:00,77.2,73.0,30.49,WSW,248,3.5,3.5,87,0.00,BKN,,0.07,WeatherDisplay:10.37,2013-07-07 13:12:00,
2013-07-07 09:13:00,77.2,73.4,30.49,WSW,257,3.5,3.5,88,0.00,BKN,,0.07,WeatherDisplay:10.37,2013-07-07 13:13:00,
2013-07-07 09:18:00,77.7,73.5,30.49,WSW,247,4.6,4.6,87,0.00,BKN,,0.07,WeatherDisplay:10.37,2013-07-07 13:18:00,
2013-07-07 09:23:00,77.7,72.8,30.49,WSW,243,4.6,4.6,85,0.00,BKN,,0.07,WeatherDisplay:10.37,2013-07-07 13:23:00,
2013-07-07 09:28:00,77.6,73.1,30.49,WNW,291,5.8,5.8,86,0.00,BKN,,0.07,WeatherDisplay:10.37,2013-07-07 13:28:00,
2013-07-07 09:33:00,77.5,73.0,30.49,WNW,282,5.0,5.0,86,0.00,BKN,,0.07,WeatherDisplay:10.37,2013-07-07 13:33:00,
2013-07-07 09:38:00,77.7,73.2,30.49,WNW,286,8.0,8.0,86,0.00,BKN,,0.07,WeatherDisplay:10.37,2013-07-07 13:38:00,
2013-07-07 09:43:00,78.0,72.8,30.48,WNW,293,3.5,3.5,84,0.00,BKN,,0.07,WeatherDisplay:10.37,2013-07-07 13:43:00,
2013-07-07 09:48:00,78.6,72.6,30.48,WNW,283,11.5,11.5,82,0.01,RA,,0.08,WeatherDisplay:10.37,2013-07-07 13:48:00,
2013-07-07 09:53:00,78.7,72.4,30.48,WNW,298,10.4,10.4,81,0.01,RA,,0.08,WeatherDisplay:10.37,2013-07-07 13:53:00,
2013-07-07 09:58:00,78.2,71.9,30.48,WNW,293,8.1,8.1,81,0.01,BKN,,0.08,WeatherDisplay:10.37,2013-07-07 13:58:00,
2013-07-07 10:03:00,78.1,72.9,30.48,West,279,6.0,6.0,84,0.01,OVC,,0.08,WeatherDisplay:10.37,2013-07-07 14:03:00,
2013-07-07 10:08:00,78.6,72.6,30.48,WNW,288,6.9,6.9,82,0.01,OVC,,0.08,WeatherDisplay:10.37,2013-07-07 14:08:00,
2013-07-07 10:13:00,79.0,72.3,30.48,West,276,10.4,10.4,80,0.01,OVC,,0.08,WeatherDisplay:10.37,2013-07-07 14:13:00,
2013-07-07 10:18:00,79.1,73.1,30.48,West,261,6.9,6.9,82,0.01,OVC,,0.08,WeatherDisplay:10.37,2013-07-07 14:18:00,
2013-07-07 10:23:00,79.0,72.3,30.48,WNW,302,5.8,5.8,80,0.01,OVC,,0.08,WeatherDisplay:10.37,2013-07-07 14:23:00,
2013-07-07 10:28:00,78.8,72.1,30.48,West,276,6.9,6.9,80,0.01,OVC,,0.08,WeatherDisplay:10.37,2013-07-07 14:28:00,
2013-07-07 10:33:00,79.0,72.7,30.48,West,281,8.1,8.1,81,0.01,OVC,,0.08,WeatherDisplay:10.37,2013-07-07 14:33:00,
2013-07-07 10:38:00,79.2,72.1,30.48,West,276,11.5,11.5,79,0.01,OVC,,0.08,WeatherDisplay:10.37,2013-07-07 14:38:00,
2013-07-07 10:43:00,79.4,71.6,30.48,West,276,10.4,10.4,77,0.01,OVC,,0.08,WeatherDisplay:10.37,2013-07-07 14:43:00,
2013-07-07 10:48:00,79.5,71.3,30.48,West,273,10.0,10.0,76,0.01,OVC,,0.08,WeatherDisplay:10.37,2013-07-07 14:48:00,
2013-07-07 10:53:00,79.0,70.8,30.48,WNW,293,10.4,10.4,76,0.00,OVC,,0.08,WeatherDisplay:10.37,2013-07-07 14:53:00,
2013-07-07 10:58:00,78.6,71.9,30.48,West,281,10.4,10.4,80,0.00,OVC,,0.08,WeatherDisplay:10.37,2013-07-07 14:58:00,
2013-07-07 11:03:00,78.6,70.4,30.48,NW,304,8.1,8.1,76,0.00,OVC,,0.08,WeatherDisplay:10.37,2013-07-07 15:03:00,
2013-07-07 11:08:00,78.9,71.5,30.48,West,276,5.8,5.8,78,0.00,OVC,,0.08,WeatherDisplay:10.37,2013-07-07 15:08:00,
2013-07-07 11:13:00,79.8,73.4,30.48,West,265,6.9,6.9,81,0.00,OVC,,0.08,WeatherDisplay:10.37,2013-07-07 15:13:00,
2013-07-07 11:18:00,80.0,71.0,30.48,West,277,13.8,13.8,74,0.00,OVC,,0.08,WeatherDisplay:10.37,2013-07-07 15:18:00,
2013-07-07 11:23:00,79.2,69.8,30.48,WNW,297,10.4,10.4,73,0.00,OVC,,0.08,WeatherDisplay:10.37,2013-07-07 15:23:00,
2013-07-07 11:28:00,79.4,70.4,30.47,West,275,8.0,8.0,74,0.00,OVC,,0.08,WeatherDisplay:10.37,2013-07-07 15:28:00,
2013-07-07 11:33:00,79.3,71.5,30.48,WNW,284,11.5,11.5,77,0.00,OVC,,0.08,WeatherDisplay:10.37,2013-07-07 15:33:00,
2013-07-07 11:38:00,79.7,71.1,30.48,WNW,287,12.7,12.7,75,0.00,OVC,,0.08,WeatherDisplay:10.37,2013-07-07 15:38:00,
2013-07-07 11:43:00,80.1,70.7,30.48,WNW,283,12.7,12.7,73,0.00,OVC,,0.08,WeatherDisplay:10.37,2013-07-07 15:43:00,
2013-07-07 11:48:00,80.3,70.4,30.48,WNW,295,10.4,10.4,72,0.00,OVC,,0.08,WeatherDisplay:10.37,2013-07-07 15:48:00,
2013-07-07 11:53:00,80.8,71.3,30.47,WNW,288,10.0,10.0,73,0.00,OVC,,0.08,WeatherDisplay:10.37,2013-07-07 15:53:00,
2013-07-07 11:58:00,80.8,70.5,30.48,WNW,289,11.5,11.5,71,0.00,OVC,,0.08,WeatherDisplay:10.37,2013-07-07 15:58:00,
2013-07-07 12:03:00,81.5,72.0,30.48,West,277,5.8,5.8,73,0.00,BKN,,0.08,WeatherDisplay:10.37,2013-07-07 16:03:00,
2013-07-07 12:08:00,81.7,70.1,30.47,West,274,9.2,9.2,68,0.00,BKN,,0.08,WeatherDisplay:10.37,2013-07-07 16:08:00,
2013-07-07 12:13:00,81.5,70.8,30.47,West,278,11.5,11.5,70,0.00,BKN,,0.08,WeatherDisplay:10.37,2013-07-07 16:13:00,
2013-07-07 12:18:00,81.4,70.2,30.47,West,266,7.0,7.0,69,0.00,BKN,,0.08,WeatherDisplay:10.37,2013-07-07 16:18:00,
2013-07-07 12:23:00,81.5,70.8,30.47,West,274,4.6,4.6,70,0.00,BKN,,0.08,WeatherDisplay:10.37,2013-07-07 16:23:00,
2013-07-07 12:28:00,81.6,69.6,30.47,WNW,289,8.1,8.1,67,0.00,BKN,,0.08,WeatherDisplay:10.37,2013-07-07 16:28:00,
2013-07-07 12:33:00,81.7,69.2,30.47,WSW,247,6.9,6.9,66,0.00,BKN,,0.08,WeatherDisplay:10.37,2013-07-07 16:33:00,
2013-07-07 12:38:00,82.2,70.6,30.47,WNW,287,7.0,7.0,68,0.00,BKN,,0.08,WeatherDisplay:10.37,2013-07-07 16:38:00,
2013-07-07 12:39:00,82.3,70.7,30.47,NW,307,10.4,10.4,68,0.00,BKN,,0.08,WeatherDisplay:10.37,2013-07-07 16:39:00,
2013-07-07 12:44:00,82.2,69.3,30.47,WNW,285,11.5,11.5,65,0.00,BKN,,0.08,WeatherDisplay:10.37,2013-07-07 16:44:00,
2013-07-07 12:49:00,81.4,69.8,30.48,WNW,285,5.8,5.8,68,0.00,BKN,,0.08,WeatherDisplay:10.37,2013-07-07 16:49:00,
2013-07-07 12:54:00,80.7,68.3,30.48,West,270,6.9,6.9,66,0.00,BKN,,0.08,WeatherDisplay:10.37,2013-07-07 16:54:00,
2013-07-07 12:59:00,80.6,69.9,30.47,WNW,282,7.0,7.0,70,0.00,BKN,,0.08,WeatherDisplay:10.37,2013-07-07 16:59:00,
2013-07-07 13:04:00,81.0,69.4,30.47,SW,221,9.2,9.2,68,0.00,FEW,,0.08,WeatherDisplay:10.37,2013-07-07 17:04:00,
2013-07-07 13:09:00,80.9,69.3,30.47,West,271,9.2,9.2,68,0.00,FEW,,0.08,WeatherDisplay:10.37,2013-07-07 17:09:00,
2013-07-07 13:14:00,80.6,69.1,30.47,WNW,290,6.9,6.9,68,0.00,FEW,,0.08,WeatherDisplay:10.37,2013-07-07 17:14:00,
2013-07-07 13:19:00,81.2,70.9,30.47,SW,217,6.9,6.9,71,0.00,FEW,,0.08,WeatherDisplay:10.37,2013-07-07 17:19:00,
2013-07-07 13:24:00,81.6,69.1,30.46,West,271,9.2,9.2,66,0.00,FEW,,0.08,WeatherDisplay:10.37,2013-07-07 17:24:00,
2013-07-07 13:29:00,82.3,70.2,30.46,WSW,251,8.1,8.1,67,0.00,FEW,,0.08,WeatherDisplay:10.37,2013-07-07 17:29:00,
2013-07-07 13:34:00,83.1,70.1,30.46,West,264,9.2,9.2,65,0.00,FEW,,0.08,WeatherDisplay:10.37,2013-07-07 17:34:00,
2013-07-07 13:39:00,82.7,69.3,30.46,West,260,8.1,8.1,64,0.00,FEW,,0.08,WeatherDisplay:10.37,2013-07-07 17:39:00,
2013-07-07 13:44:00,82.0,69.1,30.46,West,261,10.4,10.4,65,0.00,FEW,,0.08,WeatherDisplay:10.37,2013-07-07 17:44:00,
2013-07-07 13:49:00,82.1,69.2,30.46,SW,217,12.7,12.7,65,0.00,FEW,,0.08,WeatherDisplay:10.37,2013-07-07 17:49:00,
2013-07-07 13:54:00,82.4,68.1,30.45,West,265,9.2,9.2,62,0.00,FEW,,0.08,WeatherDisplay:10.37,2013-07-07 17:54:00,
2013-07-07 13:59:00,82.8,69.4,30.45,West,279,8.1,8.1,64,0.00,FEW,,0.08,WeatherDisplay:10.37,2013-07-07 17:59:00,
2013-07-07 14:04:00,82.2,69.3,30.45,West,277,9.2,9.2,65,0.00,BKN,,0.08,WeatherDisplay:10.37,2013-07-07 18:04:00,
2013-07-07 14:09:00,81.7,68.8,30.45,WNW,298,10.4,10.4,65,0.00,BKN,,0.08,WeatherDisplay:10.37,2013-07-07 18:09:00,
2013-07-07 14:14:00,81.9,69.4,30.45,West,277,8.1,8.1,66,0.00,BKN,,0.08,WeatherDisplay:10.37,2013-07-07 18:14:00,
2013-07-07 14:19:00,82.3,68.0,30.45,West,281,11.5,11.5,62,0.00,BKN,,0.08,WeatherDisplay:10.37,2013-07-07 18:19:00,
2013-07-07 14:24:00,82.3,68.9,30.45,WNW,288,6.9,6.9,64,0.00,BKN,,0.08,WeatherDisplay:10.37,2013-07-07 18:24:00,
2013-07-07 14:29:00,81.8,68.4,30.45,West,272,11.5,11.5,64,0.00,BKN,,0.08,WeatherDisplay:10.37,2013-07-07 18:29:00,
2013-07-07 14:34:00,81.5,69.5,30.45,West,275,8.1,8.1,67,0.00,BKN,,0.08,WeatherDisplay:10.37,2013-07-07 18:34:00,
2013-07-07 14:39:00,81.8,68.9,30.45,WNW,284,9.2,9.2,65,0.00,BKN,,0.08,WeatherDisplay:10.37,2013-07-07 18:39:00,
2013-07-07 14:44:00,81.6,68.7,30.44,WNW,290,11.5,11.5,65,0.00,BKN,,0.08,WeatherDisplay:10.37,2013-07-07 18:44:00,
2013-07-07 14:49:00,81.7,68.8,30.44,West,274,13.0,13.0,65,0.00,BKN,,0.08,WeatherDisplay:10.37,2013-07-07 18:49:00,
2013-07-07 14:54:00,81.9,71.6,30.44,West,264,8.1,8.1,71,0.00,BKN,,0.08,WeatherDisplay:10.37,2013-07-07 18:54:00,
2013-07-07 14:59:00,82.1,70.1,30.44,West,267,6.0,6.0,67,0.00,BKN,,0.08,WeatherDisplay:10.37,2013-07-07 18:59:00,
2013-07-07 15:04:00,82.3,68.4,30.44,WNW,294,8.0,8.0,63,0.00,BKN,,0.08,WeatherDisplay:10.37,2013-07-07 19:04:00,
2013-07-07 15:09:00,82.7,69.7,30.44,West,281,9.2,9.2,65,0.00,BKN,,0.08,WeatherDisplay:10.37,2013-07-07 19:09:00,
2013-07-07 15:14:00,82.5,69.1,30.44,WNW,286,9.2,9.2,64,0.00,BKN,,0.08,WeatherDisplay:10.37,2013-07-07 19:14:00,
2013-07-07 15:19:00,82.1,68.7,30.43,West,275,9.2,9.2,64,0.00,BKN,,0.08,WeatherDisplay:10.37,2013-07-07 19:19:00,
2013-07-07 15:24:00,81.8,69.3,30.43,WNW,282,4.6,4.6,66,0.00,BKN,,0.08,WeatherDisplay:10.37,2013-07-07 19:24:00,
2013-07-07 15:29:00,81.6,69.6,30.43,WNW,295,6.0,6.0,67,0.00,BKN,,0.08,WeatherDisplay:10.37,2013-07-07 19:29:00,
2013-07-07 15:34:00,81.5,68.1,30.43,West,265,8.1,8.1,64,0.00,BKN,,0.08,WeatherDisplay:10.37,2013-07-07 19:34:00,
2013-07-07 15:39:00,81.5,69.5,30.43,West,279,6.0,6.0,67,0.00,BKN,,0.08,WeatherDisplay:10.37,2013-07-07 19:39:00,
2013-07-07 15:44:00,81.6,69.6,30.42,WSW,256,4.0,4.0,67,0.00,BKN,,0.08,WeatherDisplay:10.37,2013-07-07 19:44:00,
2013-07-07 15:49:00,81.8,68.9,30.42,West,265,9.2,9.2,65,0.00,BKN,,0.08,WeatherDisplay:10.37,2013-07-07 19:49:00,
2013-07-07 15:54:00,82.0,70.4,30.42,WNW,292,5.0,5.0,68,0.00,BKN,,0.08,WeatherDisplay:10.37,2013-07-07 19:54:00,
2013-07-07 15:59:00,82.7,68.8,30.41,West,277,9.2,9.2,63,0.00,BKN,,0.08,WeatherDisplay:10.37,2013-07-07 19:59:00,
2013-07-07 16:04:00,83.1,71.0,30.41,WSW,254,5.8,5.8,67,0.00,BKN,,0.08,WeatherDisplay:10.37,2013-07-07 20:04:00,
2013-07-07 16:09:00,83.2,69.3,30.41,WSW,244,11.5,11.5,63,0.00,BKN,,0.08,WeatherDisplay:10.37,2013-07-07 20:09:00,
2013-07-07 16:14:00,83.4,69.5,30.41,WNW,282,9.0,9.0,63,0.00,BKN,,0.08,WeatherDisplay:10.37,2013-07-07 20:14:00,
2013-07-07 16:19:00,83.5,69.6,30.40,West,265,9.2,9.2,63,0.00,BKN,,0.08,WeatherDisplay:10.37,2013-07-07 20:19:00,
2013-07-07 16:24:00,83.6,68.7,30.40,WSW,244,9.2,9.2,61,0.00,BKN,,0.08,WeatherDisplay:10.37,2013-07-07 20:24:00,
2013-07-07 16:29:00,83.9,70.9,30.40,West,278,5.8,5.8,65,0.00,BKN,,0.08,WeatherDisplay:10.37,2013-07-07 20:29:00,
2013-07-07 16:34:00,84.1,69.7,30.40,WSW,250,8.0,8.0,62,0.00,BKN,,0.08,WeatherDisplay:10.37,2013-07-07 20:34:00,
2013-07-07 16:39:00,83.8,68.9,30.40,NW,308,12.7,12.7,61,0.00,BKN,,0.08,WeatherDisplay:10.37,2013-07-07 20:39:00,
2013-07-07 16:44:00,83.3,69.4,30.40,WNW,290,10.4,10.4,63,0.00,BKN,,0.08,WeatherDisplay:10.37,2013-07-07 20:44:00,
2013-07-07 16:49:00,82.7,69.7,30.40,West,260,8.1,8.1,65,0.00,BKN,,0.08,WeatherDisplay:10.37,2013-07-07 20:49:00,
2013-07-07 16:54:00,82.9,70.8,30.40,West,278,7.0,7.0,67,0.00,BKN,,0.08,WeatherDisplay:10.37,2013-07-07 20:54:00,
2013-07-07 16:59:00,82.5,69.1,30.40,NW,305,5.8,5.8,64,0.00,BKN,,0.08,WeatherDisplay:10.37,2013-07-07 20:59:00,
2013-07-07 17:04:00,82.3,68.9,30.40,West,278,6.9,6.9,64,0.00,BKN,,0.08,WeatherDisplay:10.37,2013-07-07 21:04:00,
2013-07-07 17:09:00,81.9,69.4,30.39,WNW,289,4.6,4.6,66,0.00,BKN,,0.08,WeatherDisplay:10.37,2013-07-07 21:09:00,
2013-07-07 17:14:00,81.5,69.0,30.40,NW,308,5.8,5.8,66,0.00,BKN,,0.08,WeatherDisplay:10.37,2013-07-07 21:14:00,
2013-07-07 17:19:00,81.2,70.5,30.39,WNW,302,3.5,3.5,70,0.00,BKN,,0.08,WeatherDisplay:10.37,2013-07-07 21:19:00,
2013-07-07 17:24:00,81.2,70.9,30.39,WNW,287,3.5,3.5,71,0.00,BKN,,0.08,WeatherDisplay:10.37,2013-07-07 21:24:00,
2013-07-07 17:29:00,81.3,70.2,30.39,WNW,292,3.5,3.5,69,0.00,BKN,,0.08,WeatherDisplay:10.37,2013-07-07 21:29:00,
2013-07-07 17:34:00,81.5,69.5,30.39,WNW,302,4.0,4.0,67,0.00,BKN,,0.08,WeatherDisplay:10.37,2013-07-07 21:34:00,
2013-07-07 17:39:00,81.4,70.2,30.39,West,278,5.8,5.8,69,0.00,BKN,,0.08,WeatherDisplay:10.37,2013-07-07 21:39:00,
2013-07-07 17:44:00,81.2,70.5,30.39,WNW,284,3.5,3.5,70,0.00,BKN,,0.08,WeatherDisplay:10.37,2013-07-07 21:44:00,
2013-07-07 17:49:00,80.8,69.7,30.39,WNW,297,5.8,5.8,69,0.00,BKN,,0.08,WeatherDisplay:10.37,2013-07-07 21:49:00,
2013-07-07 17:54:00,80.6,69.1,30.39,WNW,288,4.6,4.6,68,0.00,BKN,,0.08,WeatherDisplay:10.37,2013-07-07 21:54:00,
2013-07-07 17:59:00,80.4,70.5,30.39,WNW,287,4.0,4.0,72,0.00,BKN,,0.08,WeatherDisplay:10.37,2013-07-07 21:59:00,
2013-07-07 18:04:00,80.3,71.3,30.39,WNW,291,2.3,2.3,74,0.00,OVC,,0.08,WeatherDisplay:10.37,2013-07-07 22:04:00,
2013-07-07 18:09:00,80.2,70.8,30.39,WNW,287,3.0,3.0,73,0.00,OVC,,0.08,WeatherDisplay:10.37,2013-07-07 22:09:00,
2013-07-07 18:14:00,80.1,69.8,30.39,West,281,4.6,4.6,71,0.00,OVC,,0.08,WeatherDisplay:10.37,2013-07-07 22:14:00,
2013-07-07 18:19:00,79.9,70.9,30.39,WNW,290,4.0,4.0,74,0.00,OVC,,0.08,WeatherDisplay:10.37,2013-07-07 22:19:00,
2013-07-07 18:24:00,79.9,69.7,30.39,WNW,290,8.1,8.1,71,0.00,OVC,,0.08,WeatherDisplay:10.37,2013-07-07 22:24:00,
2013-07-07 18:29:00,79.8,70.4,30.39,West,281,5.8,5.8,73,0.00,OVC,,0.08,WeatherDisplay:10.37,2013-07-07 22:29:00,
2013-07-07 18:34:00,79.7,70.3,30.39,WNW,300,4.6,4.6,73,0.00,OVC,,0.08,WeatherDisplay:10.37,2013-07-07 22:34:00,
2013-07-07 18:39:00,79.6,69.8,30.39,NW,307,5.0,5.0,72,0.00,OVC,,0.08,WeatherDisplay:10.37,2013-07-07 22:39:00,
2013-07-07 18:44:00,79.6,70.2,30.40,WNW,295,2.3,2.3,73,0.00,OVC,,0.08,WeatherDisplay:10.37,2013-07-07 22:44:00,
2013-07-07 18:49:00,79.6,70.2,30.39,WNW,295,5.0,5.0,73,0.00,OVC,,0.08,WeatherDisplay:10.37,2013-07-07 22:49:00,
2013-07-07 18:55:00,79.4,70.4,30.39,WNW,298,3.5,3.5,74,0.00,OVC,,0.08,WeatherDisplay:10.37,2013-07-07 22:55:00,
2013-07-07 19:00:00,79.4,69.6,30.39,West,275,6.9,6.9,72,0.00,OVC,,0.08,WeatherDisplay:10.37,2013-07-07 23:00:00,
2013-07-07 19:05:00,79.3,69.5,30.39,West,268,4.6,4.6,72,0.00,BKN,,0.08,WeatherDisplay:10.37,2013-07-07 23:05:00,
2013-07-07 19:10:00,79.2,70.2,30.40,WNW,294,3.5,3.5,74,0.00,BKN,,0.08,WeatherDisplay:10.37,2013-07-07 23:10:00,
2013-07-07 19:15:00,79.0,70.0,30.40,WNW,289,3.5,3.5,74,0.00,BKN,,0.08,WeatherDisplay:10.37,2013-07-07 23:15:00,
2013-07-07 19:20:00,78.7,69.7,30.40,NW,306,5.0,5.0,74,0.00,BKN,,0.08,WeatherDisplay:10.37,2013-07-07 23:20:00,
2013-07-07 19:25:00,78.6,70.0,30.40,NW,315,3.5,3.5,75,0.00,BKN,,0.08,WeatherDisplay:10.37,2013-07-07 23:25:00,
2013-07-07 19:30:00,78.4,69.8,30.40,WNW,296,3.5,3.5,75,0.00,BKN,,0.08,WeatherDisplay:10.37,2013-07-07 23:30:00,
2013-07-07 19:35:00,78.1,69.9,30.40,WNW,283,2.3,2.3,76,0.00,BKN,,0.08,WeatherDisplay:10.37,2013-07-07 23:35:00,
2013-07-07 19:40:00,78.0,69.4,30.40,WNW,290,4.6,4.6,75,0.00,BKN,,0.08,WeatherDisplay:10.37,2013-07-07 23:40:00,
2013-07-07 19:45:00,77.9,69.7,30.40,West,276,6.0,6.0,76,0.00,BKN,,0.08,WeatherDisplay:10.37,2013-07-07 23:45:00,
2013-07-07 19:50:00,77.8,69.2,30.40,WNW,286,8.1,8.1,75,0.00,BKN,,0.08,WeatherDisplay:10.37,2013-07-07 23:50:00,
2013-07-07 19:55:00,77.7,69.5,30.40,WNW,283,3.5,3.5,76,0.00,BKN,,0.08,WeatherDisplay:10.37,2013-07-07 23:55:00,
2013-07-07 20:00:00,77.5,69.3,30.40,WNW,285,4.6,4.6,76,0.00,BKN,,0.08,WeatherDisplay:10.37,2013-07-08 00:00:00,
2013-07-07 20:05:00,77.4,69.2,30.40,WNW,300,6.9,6.9,76,0.00,CLR,,0.08,WeatherDisplay:10.37,2013-07-08 00:05:00,
2013-07-07 20:10:00,77.4,68.5,30.40,WNW,291,6.9,6.9,74,0.00,CLR,,0.08,WeatherDisplay:10.37,2013-07-08 00:10:00,
2013-07-07 20:15:00,77.3,68.4,30.40,NW,308,5.8,5.8,74,0.00,CLR,,0.08,WeatherDisplay:10.37,2013-07-08 00:15:00,
2013-07-07 20:20:00,77.3,68.0,30.40,WNW,287,6.9,6.9,73,0.00,CLR,,0.08,WeatherDisplay:10.37,2013-07-08 00:20:00,
2013-07-07 20:25:00,77.2,67.9,30.40,WNW,282,7.0,7.0,73,0.00,CLR,,0.08,WeatherDisplay:10.37,2013-07-08 00:25:00,
2013-07-07 20:30:00,77.0,67.7,30.40,WNW,288,5.8,5.8,73,0.00,CLR,,0.08,WeatherDisplay:10.37,2013-07-08 00:30:00,
2013-07-07 20:35:00,76.8,67.9,30.40,WNW,283,4.6,4.6,74,0.00,CLR,,0.08,WeatherDisplay:10.37,2013-07-08 00:35:00,
2013-07-07 20:40:00,76.6,67.7,30.40,WNW,297,3.5,3.5,74,0.00,CLR,,0.08,WeatherDisplay:10.37,2013-07-08 00:40:00,
2013-07-07 20:45:00,76.4,67.5,30.40,West,275,3.5,3.5,74,0.00,CLR,,0.08,WeatherDisplay:10.37,2013-07-08 00:45:00,
2013-07-07 20:50:00,76.2,67.3,30.40,West,275,8.0,8.0,74,0.00,CLR,,0.08,WeatherDisplay:10.37,2013-07-08 00:50:00,
2013-07-07 20:55:00,76.1,66.8,30.40,WNW,294,8.0,8.0,73,0.00,CLR,,0.08,WeatherDisplay:10.37,2013-07-08 00:55:00,
2013-07-07 21:00:00,75.8,66.5,30.40,WNW,284,11.5,11.5,73,0.00,CLR,,0.08,WeatherDisplay:10.37,2013-07-08 01:00:00,
2013-07-07 21:05:00,75.8,66.5,30.40,West,281,6.9,6.9,73,0.00,BKN,,0.08,WeatherDisplay:10.37,2013-07-08 01:05:00,
2013-07-07 21:10:00,75.5,66.6,30.40,West,279,9.2,9.2,74,0.00,BKN,,0.08,WeatherDisplay:10.37,2013-07-08 01:10:00,
2013-07-07 21:15:00,75.4,66.5,30.40,West,277,9.2,9.2,74,0.00,BKN,,0.08,WeatherDisplay:10.37,2013-07-08 01:15:00,
2013-07-07 21:20:00,75.2,66.3,30.40,West,279,4.6,4.6,74,0.00,BKN,,0.08,WeatherDisplay:10.37,2013-07-08 01:20:00,
2013-07-07 21:25:00,74.9,66.4,30.40,West,277,6.9,6.9,75,0.00,BKN,,0.08,WeatherDisplay:10.37,2013-07-08 01:25:00,
2013-07-07 21:30:00,74.8,66.7,30.40,WNW,285,3.5,3.5,76,0.00,BKN,,0.08,WeatherDisplay:10.37,2013-07-08 01:30:00,
2013-07-07 21:35:00,74.7,66.6,30.40,West,279,7.0,7.0,76,0.00,BKN,,0.08,WeatherDisplay:10.37,2013-07-08 01:35:00,
2013-07-07 21:40:00,74.6,66.5,30.41,West,264,8.1,8.1,76,0.00,BKN,,0.08,WeatherDisplay:10.37,2013-07-08 01:40:00,
2013-07-07 21:45:00,74.5,66.1,30.41,West,272,10.0,10.0,75,0.00,BKN,,0.08,WeatherDisplay:10.37,2013-07-08 01:45:00,
2013-07-07 21:50:00,74.6,66.5,30.42,West,272,6.9,6.9,76,0.00,BKN,,0.08,WeatherDisplay:10.37,2013-07-08 01:50:00,
2013-07-07 21:55:00,74.4,66.3,30.42,West,271,8.1,8.1,76,0.00,BKN,,0.08,WeatherDisplay:10.37,2013-07-08 01:55:00,
2013-07-07 22:00:00,74.3,66.2,30.43,WNW,290,9.2,9.2,76,0.00,BKN,,0.08,WeatherDisplay:10.37,2013-07-08 02:00:00,
2013-07-07 22:05:00,74.1,66.0,30.43,WNW,282,3.5,3.5,76,0.00,BKN,,0.08,WeatherDisplay:10.37,2013-07-08 02:05:00,
2013-07-07 22:10:00,74.0,66.3,30.43,West,281,8.1,8.1,77,0.00,BKN,,0.08,WeatherDisplay:10.37,2013-07-08 02:10:00,
2013-07-07 22:15:00,73.9,66.2,30.43,West,279,12.0,12.0,77,0.00,BKN,,0.08,WeatherDisplay:10.37,2013-07-08 02:15:00,
2013-07-07 22:20:00,73.9,66.2,30.44,West,279,6.9,6.9,77,0.00,BKN,,0.08,WeatherDisplay:10.37,2013-07-08 02:20:00,
2013-07-07 22:25:00,73.7,66.4,30.44,West,263,3.5,3.5,78,0.00,BKN,,0.08,WeatherDisplay:10.37,2013-07-08 02:25:00,
2013-07-07 22:30:00,73.6,66.3,30.43,WSW,253,5.8,5.8,78,0.00,BKN,,0.08,WeatherDisplay:10.37,2013-07-08 02:30:00,
2013-07-07 22:35:00,73.6,66.3,30.43,WNW,298,9.0,9.0,78,0.00,BKN,,0.08,WeatherDisplay:10.37,2013-07-08 02:35:00,
2013-07-07 22:40:00,73.6,66.3,30.43,West,279,6.9,6.9,78,0.00,BKN,,0.08,WeatherDisplay:10.37,2013-07-08 02:40:00,
2013-07-07 22:45:00,73.4,66.5,30.43,West,276,6.0,6.0,79,0.00,BKN,,0.08,WeatherDisplay:10.37,2013-07-08 02:45:00,
2013-07-07 22:50:00,73.2,66.7,30.43,West,267,4.0,4.0,80,0.00,BKN,,0.08,WeatherDisplay:10.37,2013-07-08 02:50:00,
2013-07-07 22:55:00,73.1,66.2,30.43,West,267,8.0,8.0,79,0.00,BKN,,0.08,WeatherDisplay:10.37,2013-07-08 02:55:00,
2013-07-07 23:00:00,73.0,66.1,30.43,West,274,7.0,7.0,79,0.00,BKN,,0.08,WeatherDisplay:10.37,2013-07-08 03:00:00,
2013-07-07 23:05:00,73.0,66.1,30.43,West,259,8.1,8.1,79,0.00,OVC,,0.08,WeatherDisplay:10.37,2013-07-08 03:05:00,
2013-07-07 23:10:00,73.0,66.1,30.43,West,276,5.8,5.8,79,0.00,OVC,,0.08,WeatherDisplay:10.37,2013-07-08 03:10:00,
2013-07-07 23:15:00,72.9,66.0,30.43,WSW,238,6.0,6.2,79,0.00,OVC,,0.08,WeatherDisplay:10.37,2013-07-08 03:15:00,
2013-07-07 23:20:00,72.9,66.0,30.43,WNW,293,6.9,6.9,79,0.00,OVC,,0.08,WeatherDisplay:10.37,2013-07-08 03:20:00,
2013-07-07 23:25:00,72.8,65.9,30.43,WSW,257,10.4,10.4,79,0.00,OVC,,0.08,WeatherDisplay:10.37,2013-07-08 03:25:00,
2013-07-07 23:30:00,72.7,65.8,30.43,WNW,291,8.1,8.1,79,0.00,OVC,,0.08,WeatherDisplay:10.37,2013-07-08 03:30:00,
2013-07-07 23:35:00,72.6,65.7,30.43,West,269,8.1,8.1,79,0.00,OVC,,0.08,WeatherDisplay:10.37,2013-07-08 03:35:00,
2013-07-07 23:40:00,72.6,65.7,30.43,West,266,8.1,8.1,79,0.00,OVC,,0.08,WeatherDisplay:10.37,2013-07-08 03:40:00,
2013-07-07 23:45:00,72.6,65.7,30.43,West,267,10.4,10.4,79,0.00,OVC,,0.08,WeatherDisplay:10.37,2013-07-08 03:45:00,
2013-07-07 23:50:00,72.4,65.5,30.43,West,278,5.0,5.0,79,0.00,OVC,,0.08,WeatherDisplay:10.37,2013-07-08 03:50:00,
2013-07-07 23:55:00,72.4,65.9,30.43,West,272,6.9,6.9,80,0.00,OVC,,0.08,WeatherDisplay:10.37,2013-07-08 03:55:00,